Pagina principale
METAR-TAF:

METAR-TAF

Aeroporti :

Wallis, Francia

latitudine: 13-14S, longitudine: 176-10W, altezza: 23 m

METAR: mancante

Ora: 17:29 (05:29 UTC)

Previsione

Il bollettino è stato emesso 4 ore e 2 minuti fa, alle 01:27 UTC
Previsione valida dal 24 alle 01 UTC al 24 alle 24 UTC
Vento 12 kt da nord
Visibilità 10 km o più
Nubi sparse ad un'altezza di 1500 ft
Temporaneamente
dal 24 alle 01 UTC al 24 alle 24 UTC
Visibilità: 4000 m
Nubi sparse ad un'altezza di 1500 ft, Cumulo congesto.
rovesci di pioggia
Probabilità 40%
dal 24 alle 01 UTC al 24 alle 24 UTC
Vento 15 kt da direzioni variabili con raffiche fino a 25 kt
Visibilità: 2000 m
Nuvoloso ad un'altezza di 1000 ft, Cumulonembo.
temporale, pioggia

TAF: NLWW 240127Z 2401/2424 01012KT 9999 SCT015 TEMPO 2401/2424 4000 SHRA SCT015TCU PROB40 2401/2424 VRB15G25KT 2000 TSRA BKN010CB

Osservazioni e previsioni meteorologiche di più di 4000 aeroporti (messaggi METAR e TAF).

Le stazioni disponibili sono rappresentate dai dischi gialli e rossi sulla carta.

Puntare il mouse per vedere il nome della stazione.

Clicca sopra per visualizzare le osservazioni e previsioni meteorologiche.

Per cambiare la mappa : fare clic sui pulsanti verdi con una croce nera per ingrandire, il pulsante verde con un trattino per diminuire, o sulla freccia verde per le mappe adiacenti.


METAR-TAF: